Time;durP1;ratioP1;P1;durP2;ratioP2;P2;SDS_P1;SDS_P2;PMS_P1;PMS_P2;Temp;Humidity;BMP_temperature;BMP_pressure;BME280_temperature;BME280_humidity;BME280_pressure;Samples;Min_cycle;Max_cycle;Signal;HPM_P1;HPM_P2
2023/05/30 00:01:18;;;;;;;5.67;2.23;;;14.30;71.10;;;;;;4957460;28;20212;-64
2023/05/30 00:03:44;;;;;;;5.60;1.90;;;14.30;71.00;;;;;;4951630;28;20205;-64
2023/05/30 00:06:11;;;;;;;3.20;1.93;;;14.20;70.90;;;;;;4952798;28;20202;-63
2023/05/30 00:08:36;;;;;;;7.73;2.33;;;14.10;71.20;;;;;;4953212;28;20213;-64
2023/05/30 00:11:02;;;;;;;6.60;2.27;;;14.10;71.60;;;;;;4956286;28;20256;-64
2023/05/30 00:13:28;;;;;;;3.67;1.90;;;14.10;72.30;;;;;;4951250;28;20213;-62
2023/05/30 00:15:55;;;;;;;7.80;2.43;;;14.10;72.30;;;;;;4953815;28;20695;-63
2023/05/30 00:18:22;;;;;;;5.40;2.53;;;14.10;73.30;;;;;;4957780;28;20201;-63
2023/05/30 00:20:48;;;;;;;5.67;1.80;;;14.10;74.00;;;;;;4957364;28;20284;-64
2023/05/30 00:23:14;;;;;;;3.70;2.20;;;14.10;73.50;;;;;;4956939;28;20317;-62
2023/05/30 00:25:40;;;;;;;3.57;2.37;;;14.00;73.70;;;;;;4956946;28;20208;-63
2023/05/30 00:28:07;;;;;;;6.23;2.00;;;14.00;73.50;;;;;;4957566;28;20217;-63
2023/05/30 00:30:33;;;;;;;5.23;2.23;;;13.90;74.30;;;;;;4946962;28;20213;-63
2023/05/30 00:32:59;;;;;;;6.17;2.10;;;13.90;75.00;;;;;;4947964;28;20201;-63
2023/05/30 00:35:25;;;;;;;4.17;2.50;;;13.90;74.80;;;;;;4932724;28;20206;-64
2023/05/30 00:37:50;;;;;;;6.07;2.90;;;13.80;74.30;;;;;;4942072;28;20198;-63
2023/05/30 00:40:16;;;;;;;4.43;2.27;;;13.80;74.70;;;;;;4951913;28;20724;-63
2023/05/30 00:42:42;;;;;;;5.60;2.23;;;13.80;75.00;;;;;;4948536;28;20565;-63
2023/05/30 00:45:07;;;;;;;5.07;2.07;;;13.80;76.60;;;;;;4948297;28;20205;-64
2023/05/30 00:47:33;;;;;;;5.27;2.30;;;13.80;77.10;;;;;;4948539;28;20221;-63
2023/05/30 00:49:59;;;;;;;5.23;2.10;;;13.70;78.70;;;;;;4951867;28;20206;-64
2023/05/30 00:52:25;;;;;;;5.97;2.33;;;13.70;80.00;;;;;;4950018;28;20763;-63
2023/05/30 00:54:51;;;;;;;6.00;2.63;;;13.70;81.30;;;;;;4951077;28;20190;-64
2023/05/30 00:57:16;;;;;;;2.63;2.00;;;13.60;81.60;;;;;;4951449;28;20428;-64
2023/05/30 00:59:43;;;;;;;4.33;2.37;;;13.60;82.10;;;;;;4951312;28;20704;-63
2023/05/30 01:02:09;;;;;;;4.37;2.47;;;13.60;84.00;;;;;;4951136;28;20206;-64
2023/05/30 01:04:34;;;;;;;4.87;1.90;;;13.50;82.90;;;;;;4949871;28;20214;-63
2023/05/30 01:07:00;;;;;;;2.83;1.50;;;13.40;83.00;;;;;;4951822;28;20221;-63
2023/05/30 01:09:26;;;;;;;5.10;2.57;;;13.50;83.80;;;;;;4954241;28;20241;-63
2023/05/30 01:12:17;;;;;;;4.43;2.17;;;13.40;85.40;;;;;;4958581;28;20205;-63
2023/05/30 01:14:46;;;;;;;5.43;2.00;;;13.40;84.40;;;;;;4958158;28;20198;-63
2023/05/30 01:17:32;;;;;;;4.87;1.90;;;13.30;84.30;;;;;;4952507;28;20205;-63
2023/05/30 01:20:07;;;;;;;4.13;2.30;;;13.30;86.10;;;;;;4955679;28;20209;-63
2023/05/30 01:23:00;;;;;;;3.77;2.00;;;13.20;88.10;;;;;;4953289;28;20218;-64
2023/05/30 01:25:35;;;;;;;3.90;2.00;;;13.20;87.60;;;;;;4959048;28;20280;-63
2023/05/30 01:28:15;;;;;;;3.80;2.37;;;13.20;88.60;;;;;;4954023;28;20213;-63
2023/05/30 01:30:44;;;;;;;5.20;2.10;;;13.10;88.50;;;;;;4957876;28;20201;-63
2023/05/30 01:33:12;;;;;;;3.77;2.30;;;13.10;88.30;;;;;;4947735;28;20198;-63
2023/05/30 01:35:37;;;;;;;3.57;2.40;;;13.10;90.20;;;;;;4949201;28;20213;-62
2023/05/30 01:38:03;;;;;;;5.17;2.30;;;13.10;90.80;;;;;;4950674;28;20710;-62
2023/05/30 01:40:29;;;;;;;6.37;2.53;;;13.00;91.20;;;;;;4950085;28;20206;-62
2023/05/30 01:42:57;;;;;;;4.97;1.97;;;13.00;91.90;;;;;;4952637;28;20841;-63
2023/05/30 01:46:01;;;;;;;8.17;2.70;;;13.00;92.80;;;;;;4948499;28;20202;-63
2023/05/30 01:48:56;;;;;;;8.00;2.50;;;12.90;93.20;;;;;;4938984;28;20240;-63
2023/05/30 01:51:29;;;;;;;5.10;2.97;;;12.90;94.30;;;;;;4948345;28;20202;-63
2023/05/30 01:53:59;;;;;;;4.20;2.60;;;12.90;95.40;;;;;;4948439;28;20298;-63
2023/05/30 01:56:27;;;;;;;4.33;2.33;;;12.90;95.60;;;;;;4950066;28;20237;-63
2023/05/30 01:58:53;;;;;;;3.87;2.13;;;12.80;95.60;;;;;;4950560;28;20358;-63
2023/05/30 02:01:25;;;;;;;5.67;2.30;;;12.70;95.80;;;;;;4953422;28;20216;-64
2023/05/30 02:03:51;;;;;;;2.47;2.10;;;12.70;96.40;;;;;;4941873;28;20350;-67
2023/05/30 02:06:17;;;;;;;4.70;2.37;;;12.70;95.70;;;;;;4953795;28;20292;-62
2023/05/30 02:08:42;;;;;;;7.93;2.53;;;12.70;96.00;;;;;;4950205;28;20197;-63
2023/05/30 02:11:07;;;;;;;4.50;2.50;;;12.70;96.10;;;;;;4948752;28;20252;-63
2023/05/30 02:13:33;;;;;;;6.07;2.47;;;12.70;95.90;;;;;;4941714;28;20202;-63
2023/05/30 02:15:58;;;;;;;3.50;1.90;;;12.60;96.80;;;;;;4940232;28;20226;-63
2023/05/30 02:18:27;;;;;;;3.73;2.43;;;12.60;96.80;;;;;;4945085;28;20216;-63
2023/05/30 02:20:53;;;;;;;6.17;2.53;;;12.60;97.10;;;;;;4949879;28;20309;-63
2023/05/30 02:23:19;;;;;;;6.17;2.50;;;12.60;98.50;;;;;;4950185;28;20238;-63
2023/05/30 02:25:45;;;;;;;5.27;2.23;;;12.50;99.00;;;;;;4949930;28;20260;-63
2023/05/30 02:28:10;;;;;;;2.93;2.33;;;12.50;99.80;;;;;;4948528;28;20248;-63
2023/05/30 02:30:36;;;;;;;3.10;2.30;;;12.50;99.90;;;;;;4950920;28;20235;-63
2023/05/30 02:33:02;;;;;;;5.27;2.70;;;12.50;99.90;;;;;;4950910;28;20205;-63
2023/05/30 02:35:27;;;;;;;4.93;2.30;;;12.40;99.90;;;;;;4951472;28;20664;-63
2023/05/30 02:37:53;;;;;;;8.27;2.73;;;12.40;99.90;;;;;;4950177;28;20225;-63
2023/05/30 02:40:18;;;;;;;4.53;2.30;;;12.40;99.90;;;;;;4948163;28;20202;-63
2023/05/30 02:42:44;;;;;;;4.43;2.27;;;12.30;99.90;;;;;;4949787;28;20423;-63
2023/05/30 02:45:10;;;;;;;5.60;3.20;;;12.30;99.90;;;;;;4949714;28;20205;-63
2023/05/30 02:47:35;;;;;;;9.63;3.60;;;12.30;99.90;;;;;;4949980;28;21481;-63
2023/05/30 02:50:01;;;;;;;7.10;3.37;;;12.30;99.90;;;;;;4949865;28;20285;-62
2023/05/30 02:52:26;;;;;;;10.83;4.30;;;12.30;99.90;;;;;;4948332;28;20210;-63
2023/05/30 02:54:52;;;;;;;8.23;3.87;;;12.30;99.90;;;;;;4945146;28;20632;-63
2023/05/30 02:57:19;;;;;;;7.23;3.90;;;12.20;99.90;;;;;;4946187;28;20301;-63
2023/05/30 02:59:45;;;;;;;9.37;4.00;;;12.20;99.90;;;;;;4951678;28;20194;-63
2023/05/30 03:02:11;;;;;;;4.03;2.80;;;12.10;99.90;;;;;;4949466;28;20276;-63
2023/05/30 03:04:37;;;;;;;6.70;3.37;;;12.20;99.90;;;;;;4947572;28;20571;-64
2023/05/30 03:07:03;;;;;;;9.53;4.07;;;12.10;99.90;;;;;;4949378;28;20238;-64
2023/05/30 03:09:28;;;;;;;9.33;2.70;;;12.10;99.90;;;;;;4949286;28;20201;-63
2023/05/30 03:11:54;;;;;;;8.23;2.80;;;12.00;99.90;;;;;;4948687;28;20218;-63
2023/05/30 03:14:20;;;;;;;8.40;3.23;;;11.90;99.90;;;;;;4931561;29;20572;-63
2023/05/30 03:16:45;;;;;;;5.67;2.80;;;12.00;99.90;;;;;;4949084;28;20208;-64
2023/05/30 03:19:11;;;;;;;3.70;2.63;;;11.90;99.90;;;;;;4949529;28;20213;-63
2023/05/30 03:21:37;;;;;;;6.23;2.77;;;11.90;99.90;;;;;;4949295;28;20209;-64
2023/05/30 03:24:03;;;;;;;5.97;3.03;;;11.90;99.90;;;;;;4951274;28;20222;-63
2023/05/30 03:26:29;;;;;;;6.10;3.40;;;11.90;99.90;;;;;;4948844;28;20256;-64
2023/05/30 03:28:55;;;;;;;7.07;2.33;;;11.90;99.90;;;;;;4950270;28;20718;-64
2023/05/30 03:31:20;;;;;;;7.50;2.93;;;11.90;99.90;;;;;;4947585;28;20233;-63
2023/05/30 03:33:46;;;;;;;6.50;3.07;;;11.90;99.90;;;;;;4949003;28;20212;-64
2023/05/30 03:36:12;;;;;;;7.03;3.10;;;11.90;99.90;;;;;;4951084;28;20558;-64
2023/05/30 03:38:38;;;;;;;5.70;2.80;;;11.80;99.90;;;;;;4956781;28;20193;-64
2023/05/30 03:41:04;;;;;;;10.40;3.47;;;11.90;99.90;;;;;;4958874;28;20319;-63
2023/05/30 03:43:30;;;;;;;5.70;3.17;;;11.90;99.90;;;;;;4956364;28;20209;-63
2023/05/30 03:45:55;;;;;;;8.00;3.70;;;11.90;99.90;;;;;;4957895;28;20201;-63
2023/05/30 03:48:21;;;;;;;5.60;2.73;;;11.90;99.90;;;;;;4953446;28;20221;-64
2023/05/30 03:50:46;;;;;;;7.87;2.77;;;11.90;99.90;;;;;;4954850;28;20732;-63
2023/05/30 03:53:12;;;;;;;7.73;2.70;;;12.00;99.90;;;;;;4957790;28;20209;-64
2023/05/30 03:55:38;;;;;;;4.57;2.23;;;12.00;99.90;;;;;;4957836;28;20204;-64
2023/05/30 03:58:04;;;;;;;8.10;2.30;;;12.00;99.90;;;;;;4952304;28;20284;-68
2023/05/30 04:00:29;;;;;;;4.60;2.80;;;12.00;99.90;;;;;;4953423;28;20685;-63
2023/05/30 04:02:55;;;;;;;8.47;2.77;;;12.00;99.90;;;;;;4958106;28;20209;-63
2023/05/30 04:05:20;;;;;;;9.93;3.27;;;12.00;99.90;;;;;;4958071;28;20203;-62
2023/05/30 04:07:47;;;;;;;6.77;2.53;;;12.00;99.90;;;;;;4953484;28;20208;-64
2023/05/30 04:10:12;;;;;;;6.00;2.43;;;12.00;99.90;;;;;;4957983;28;20205;-63
2023/05/30 04:12:38;;;;;;;8.70;3.60;;;12.10;99.90;;;;;;4955931;28;20264;-64
2023/05/30 04:15:07;;;;;;;4.50;2.97;;;12.00;99.90;;;;;;4954800;28;20211;-63
2023/05/30 04:17:32;;;;;;;9.63;2.97;;;12.00;99.90;;;;;;4957763;28;20580;-64
2023/05/30 04:19:58;;;;;;;5.63;2.90;;;11.90;99.90;;;;;;4957920;28;20193;-63
2023/05/30 04:22:24;;;;;;;6.87;3.17;;;11.80;99.90;;;;;;4955046;28;20769;-64
2023/05/30 04:24:50;;;;;;;6.03;2.83;;;11.80;99.90;;;;;;4957771;28;20194;-63
2023/05/30 04:27:17;;;;;;;6.33;2.90;;;11.90;99.90;;;;;;4957767;28;20866;-64
2023/05/30 04:29:43;;;;;;;6.97;3.40;;;11.90;99.90;;;;;;4955862;28;20197;-64
2023/05/30 04:32:09;;;;;;;3.83;2.97;;;11.90;99.90;;;;;;4953414;28;20224;-64
2023/05/30 04:34:34;;;;;;;9.33;2.80;;;11.90;99.90;;;;;;4946354;28;20208;-64
2023/05/30 04:37:01;;;;;;;9.93;3.37;;;11.90;99.90;;;;;;4952026;28;20933;-64
2023/05/30 04:39:27;;;;;;;4.63;2.47;;;11.90;99.90;;;;;;4957030;28;20212;-64
2023/05/30 04:41:54;;;;;;;16.00;3.30;;;11.90;99.90;;;;;;4957722;28;20209;-63
2023/05/30 04:44:20;;;;;;;4.87;2.27;;;11.90;99.90;;;;;;4951473;28;20613;-64
2023/05/30 04:46:46;;;;;;;5.70;2.53;;;12.00;99.90;;;;;;4957885;28;20228;-64
2023/05/30 04:49:14;;;;;;;4.60;2.67;;;12.00;99.90;;;;;;4957971;28;20575;-64
2023/05/30 04:51:40;;;;;;;4.50;2.00;;;11.90;99.90;;;;;;4958047;28;20208;-64
2023/05/30 04:54:05;;;;;;;7.43;2.20;;;11.90;99.90;;;;;;4958010;28;20995;-64
2023/05/30 04:56:31;;;;;;;2.37;1.70;;;12.00;99.90;;;;;;4957015;28;20211;-64
2023/05/30 04:58:57;;;;;;;6.27;2.37;;;12.00;99.90;;;;;;4958078;28;20652;-63
2023/05/30 05:01:24;;;;;;;6.47;2.80;;;12.00;99.90;;;;;;4957581;28;20209;-64
2023/05/30 05:03:50;;;;;;;3.50;1.73;;;12.00;99.90;;;;;;4957236;28;20203;-63
2023/05/30 05:06:16;;;;;;;7.27;2.40;;;12.00;99.90;;;;;;4957463;28;20684;-63
2023/05/30 05:08:41;;;;;;;2.60;1.67;;;12.00;99.90;;;;;;4938675;28;20651;-64
2023/05/30 05:11:08;;;;;;;4.67;1.63;;;12.10;99.90;;;;;;4957327;28;20198;-64
2023/05/30 05:13:33;;;;;;;7.93;3.17;;;12.10;99.90;;;;;;4956703;28;21075;-63
2023/05/30 05:16:00;;;;;;;4.97;2.57;;;12.30;99.90;;;;;;4951784;28;20196;-63
2023/05/30 05:18:26;;;;;;;4.43;2.40;;;12.30;99.90;;;;;;4957160;28;20221;-63
2023/05/30 05:20:52;;;;;;;3.33;1.90;;;12.40;99.90;;;;;;4955835;28;20205;-64
2023/05/30 05:23:17;;;;;;;5.77;1.90;;;12.40;99.90;;;;;;4957566;28;20237;-64
2023/05/30 05:25:43;;;;;;;5.30;2.70;;;12.40;99.90;;;;;;4957953;28;20204;-63
2023/05/30 05:28:09;;;;;;;5.33;1.97;;;12.50;99.90;;;;;;4957612;28;20224;-64
2023/05/30 05:30:34;;;;;;;14.33;3.00;;;12.50;99.90;;;;;;4953698;28;20713;-64
2023/05/30 05:33:00;;;;;;;5.57;2.67;;;12.70;99.90;;;;;;4949677;28;20723;-64
2023/05/30 05:35:25;;;;;;;6.23;2.30;;;12.70;99.90;;;;;;4948404;28;20209;-63
2023/05/30 05:37:51;;;;;;;6.47;3.07;;;12.80;99.90;;;;;;4951243;28;20300;-63
2023/05/30 05:40:16;;;;;;;4.50;2.60;;;12.80;99.90;;;;;;4951114;28;20206;-63
2023/05/30 05:42:43;;;;;;;6.67;2.53;;;12.90;99.90;;;;;;4951002;28;20207;-63
2023/05/30 05:45:09;;;;;;;8.47;4.30;;;12.90;99.90;;;;;;4950891;28;20212;-63
2023/05/30 05:47:35;;;;;;;5.03;2.40;;;13.00;99.90;;;;;;4949199;28;20585;-63
2023/05/30 05:50:00;;;;;;;4.93;2.40;;;13.10;99.90;;;;;;4952254;28;20203;-64
2023/05/30 05:52:26;;;;;;;7.37;2.27;;;13.10;99.90;;;;;;4951368;28;20210;-63
2023/05/30 05:54:52;;;;;;;3.70;2.23;;;13.20;99.90;;;;;;4951497;28;20613;-63
2023/05/30 05:57:17;;;;;;;7.67;2.37;;;13.40;99.80;;;;;;4952652;28;20689;-64
2023/05/30 05:59:43;;;;;;;5.53;2.13;;;13.60;99.30;;;;;;4948789;28;20241;-63
2023/05/30 06:02:08;;;;;;;5.03;2.90;;;13.70;99.10;;;;;;4951170;28;20198;-64
2023/05/30 06:04:34;;;;;;;6.17;3.00;;;13.80;99.20;;;;;;4960137;28;20752;-64
2023/05/30 06:07:00;;;;;;;3.33;2.23;;;13.70;99.00;;;;;;4960219;28;20214;-64
2023/05/30 06:09:30;;;;;;;6.00;2.07;;;13.70;99.20;;;;;;4960239;28;20194;-64
2023/05/30 06:11:56;;;;;;;3.17;1.80;;;13.70;99.40;;;;;;4959274;28;20197;-63
2023/05/30 06:14:22;;;;;;;8.70;2.73;;;13.80;99.00;;;;;;4960056;28;20532;-64
2023/05/30 06:16:47;;;;;;;6.00;2.33;;;14.00;98.90;;;;;;4960026;28;20236;-63
2023/05/30 06:19:13;;;;;;;7.00;2.10;;;14.10;98.20;;;;;;4960018;28;20205;-64
2023/05/30 06:21:38;;;;;;;6.90;3.17;;;14.30;98.20;;;;;;4958450;28;20288;-63
2023/05/30 06:24:05;;;;;;;4.27;2.03;;;14.30;98.10;;;;;;4959503;28;20221;-64
2023/05/30 06:26:31;;;;;;;4.40;3.43;;;14.40;98.00;;;;;;4957862;28;20659;-63
2023/05/30 06:28:56;;;;;;;4.87;2.67;;;14.40;98.40;;;;;;4951934;28;20194;-63
2023/05/30 06:31:22;;;;;;;5.57;2.30;;;14.40;98.10;;;;;;4958073;28;20229;-63
2023/05/30 06:33:48;;;;;;;10.10;3.73;;;14.50;98.50;;;;;;4953748;28;20313;-63
2023/05/30 06:36:13;;;;;;;6.17;2.00;;;14.60;98.00;;;;;;4960058;28;20204;-65
2023/05/30 06:38:39;;;;;;;7.83;3.03;;;14.60;97.90;;;;;;4959771;28;20284;-63
2023/05/30 06:41:04;;;;;;;3.53;2.00;;;14.70;98.00;;;;;;4953019;28;20221;-63
2023/05/30 06:43:30;;;;;;;6.33;2.50;;;14.80;97.70;;;;;;4959553;28;20208;-63
2023/05/30 06:45:55;;;;;;;9.13;3.50;;;14.90;97.30;;;;;;4956998;28;20284;-63
2023/05/30 06:48:21;;;;;;;5.47;2.23;;;15.10;96.80;;;;;;4954224;28;20331;-63
2023/05/30 06:50:46;;;;;;;9.03;2.17;;;15.20;96.70;;;;;;4958396;28;20197;-63
2023/05/30 06:53:12;;;;;;;3.70;2.13;;;15.30;96.40;;;;;;4950566;28;20265;-64
2023/05/30 06:55:38;;;;;;;3.43;2.00;;;15.30;96.60;;;;;;4958017;28;20239;-63
2023/05/30 06:58:05;;;;;;;3.37;2.17;;;15.20;96.50;;;;;;4958359;28;20217;-64
2023/05/30 07:00:31;;;;;;;5.47;2.27;;;15.20;96.50;;;;;;4957178;28;20209;-63
2023/05/30 07:02:57;;;;;;;5.03;2.50;;;15.30;96.50;;;;;;4959149;28;20198;-65
2023/05/30 07:05:22;;;;;;;4.20;2.10;;;15.10;96.60;;;;;;4957120;28;20206;-63
2023/05/30 07:07:48;;;;;;;3.10;2.30;;;15.10;96.60;;;;;;4959128;28;20219;-63
2023/05/30 07:10:13;;;;;;;3.83;2.47;;;15.20;96.50;;;;;;4959097;28;20205;-65
2023/05/30 07:12:39;;;;;;;4.47;2.57;;;15.40;96.20;;;;;;4959305;28;20225;-64
2023/05/30 07:15:06;;;;;;;5.67;2.13;;;15.50;96.40;;;;;;4959238;28;20201;-64
2023/05/30 07:17:32;;;;;;;5.83;2.53;;;15.60;95.60;;;;;;4957189;28;20197;-73
2023/05/30 07:19:58;;;;;;;6.07;2.00;;;15.70;95.80;;;;;;4959083;28;20198;-74
2023/05/30 07:22:23;;;;;;;3.77;1.70;;;15.70;95.70;;;;;;4958774;28;20229;-73
2023/05/30 07:24:49;;;;;;;5.00;2.37;;;15.70;95.20;;;;;;4958798;28;20224;-74
2023/05/30 07:27:14;;;;;;;3.77;2.70;;;15.80;95.60;;;;;;4958669;28;20213;-74
2023/05/30 07:29:40;;;;;;;6.83;2.47;;;15.80;95.50;;;;;;4958200;28;20236;-74
2023/05/30 07:32:06;;;;;;;2.93;1.80;;;15.90;94.20;;;;;;4957579;28;20695;-73
2023/05/30 07:34:31;;;;;;;5.80;2.33;;;15.90;93.80;;;;;;4958556;28;20205;-75
2023/05/30 07:36:57;;;;;;;5.70;2.17;;;15.90;94.60;;;;;;4959012;28;20190;-73
2023/05/30 07:39:23;;;;;;;2.27;1.53;;;16.00;93.30;;;;;;4943809;28;20209;-73
2023/05/30 07:41:48;;;;;;;6.13;2.40;;;16.00;91.80;;;;;;4944836;28;20198;-75
2023/05/30 07:44:14;;;;;;;3.70;1.70;;;16.00;92.70;;;;;;4944775;28;20210;-76
2023/05/30 07:46:40;;;;;;;3.70;1.93;;;16.10;91.90;;;;;;4942735;28;20233;-75
2023/05/30 07:49:08;;;;;;;7.87;1.97;;;16.30;91.70;;;;;;4945790;28;20286;-79
2023/05/30 07:51:34;;;;;;;4.43;2.23;;;16.30;91.40;;;;;;4945618;28;20286;-73
2023/05/30 07:53:59;;;;;;;4.97;2.63;;;16.40;91.10;;;;;;4945059;28;20281;-77
2023/05/30 07:56:26;;;;;;;7.90;1.83;;;16.50;90.70;;;;;;4941982;28;20216;-76
2023/05/30 07:58:51;;;;;;;5.23;2.00;;;16.40;89.80;;;;;;4940770;28;20257;-76
2023/05/30 08:01:17;;;;;;;3.10;1.60;;;16.70;89.60;;;;;;4941733;28;20199;-71
2023/05/30 08:03:42;;;;;;;4.27;1.90;;;16.90;89.00;;;;;;4942068;28;20309;-70
2023/05/30 08:06:08;;;;;;;5.53;2.30;;;17.00;88.20;;;;;;4942140;28;20191;-70
2023/05/30 08:08:33;;;;;;;3.50;2.10;;;17.20;87.90;;;;;;4955048;28;20206;-71
2023/05/30 08:10:58;;;;;;;5.43;2.03;;;17.20;88.40;;;;;;4957996;28;20288;-71
2023/05/30 08:13:28;;;;;;;4.60;2.23;;;17.30;85.50;;;;;;4958004;28;20264;-71
2023/05/30 08:15:54;;;;;;;4.77;1.60;;;17.10;85.10;;;;;;4957734;28;20241;-72
2023/05/30 08:18:21;;;;;;;5.47;2.63;;;17.20;85.50;;;;;;4957469;28;20218;-71
2023/05/30 08:20:47;;;;;;;3.37;1.87;;;17.30;85.00;;;;;;4955994;28;20702;-71
2023/05/30 08:23:12;;;;;;;4.40;2.00;;;17.40;84.50;;;;;;4952037;28;20235;-72
2023/05/30 08:25:42;;;;;;;7.33;2.27;;;17.40;85.40;;;;;;4958014;28;20246;-71
2023/05/30 08:28:10;;;;;;;4.33;2.20;;;17.40;86.90;;;;;;4957238;28;20250;-71
2023/05/30 08:30:35;;;;;;;4.03;1.97;;;17.50;83.80;;;;;;4950851;28;20206;-71
2023/05/30 08:33:01;;;;;;;5.80;2.03;;;17.60;82.60;;;;;;4941454;28;20205;-72
2023/05/30 08:35:27;;;;;;;6.87;2.17;;;17.70;83.00;;;;;;4938944;28;20734;-72
2023/05/30 08:37:52;;;;;;;3.70;2.00;;;17.80;80.20;;;;;;4946571;28;20202;-71
2023/05/30 08:40:21;;;;;;;5.00;2.17;;;17.80;81.60;;;;;;4958221;28;20607;-71
2023/05/30 08:42:47;;;;;;;3.53;2.20;;;17.90;80.80;;;;;;4957627;28;20242;-72
2023/05/30 08:45:13;;;;;;;3.97;2.00;;;18.10;81.40;;;;;;4952090;28;20239;-72
2023/05/30 08:47:39;;;;;;;7.53;1.77;;;18.10;78.90;;;;;;4944021;28;20685;-71
2023/05/30 08:50:07;;;;;;;3.77;2.10;;;18.10;79.60;;;;;;4957666;28;20201;-72
2023/05/30 08:52:33;;;;;;;5.17;2.27;;;18.10;79.80;;;;;;4957528;28;20293;-72
2023/05/30 08:55:12;;;;;;;5.67;2.13;;;18.10;78.70;;;;;;4957984;28;20189;-71
2023/05/30 08:57:49;;;;;;;2.00;1.73;;;18.10;79.70;;;;;;4947431;28;20727;-72
2023/05/30 09:00:16;;;;;;;6.37;2.43;;;18.20;80.70;;;;;;4947730;28;20211;-73
2023/05/30 09:02:43;;;;;;;7.57;2.53;;;18.30;79.30;;;;;;4937721;28;20214;-70
2023/05/30 09:05:10;;;;;;;4.97;2.60;;;18.40;75.70;;;;;;4943781;28;20202;-70
2023/05/30 09:07:37;;;;;;;6.77;2.67;;;18.40;77.50;;;;;;4951825;28;20221;-68
2023/05/30 09:10:04;;;;;;;6.80;2.17;;;18.60;75.90;;;;;;4954251;28;20521;-69
2023/05/30 09:12:30;;;;;;;5.67;2.47;;;18.60;76.60;;;;;;4950248;28;20196;-73
2023/05/30 09:14:56;;;;;;;4.87;2.27;;;18.60;75.70;;;;;;4944683;28;20237;-72
2023/05/30 09:17:21;;;;;;;3.53;2.10;;;18.50;74.50;;;;;;4946278;28;20849;-72
2023/05/30 09:19:48;;;;;;;3.97;1.87;;;18.50;76.70;;;;;;4947542;28;20212;-70
2023/05/30 09:22:14;;;;;;;6.10;2.33;;;18.50;75.50;;;;;;4961168;28;20334;-71
2023/05/30 09:24:59;;;;;;;6.73;2.90;;;18.50;75.80;;;;;;4960330;28;20753;-69
2023/05/30 09:27:25;;;;;;;4.47;2.10;;;18.70;72.70;;;;;;4954866;28;20241;-70
2023/05/30 09:29:51;;;;;;;5.30;1.73;;;18.90;72.70;;;;;;4961310;28;20198;-70
2023/05/30 09:32:17;;;;;;;4.83;2.80;;;19.00;71.70;;;;;;4958854;28;20616;-70
2023/05/30 09:34:53;;;;;;;3.90;3.00;;;19.10;71.00;;;;;;4960492;28;20255;-71
2023/05/30 09:37:19;;;;;;;8.23;2.70;;;19.00;69.30;;;;;;4956082;28;20414;-71
2023/05/30 09:40:04;;;;;;;7.60;2.53;;;19.10;70.10;;;;;;4944687;28;20561;-70
2023/05/30 09:42:59;;;;;;;6.63;2.07;;;19.30;67.70;;;;;;4949490;28;20247;-69
2023/05/30 09:45:25;;;;;;;3.27;2.20;;;19.30;68.10;;;;;;4938596;28;20732;-69
2023/05/30 09:47:52;;;;;;;4.20;2.10;;;19.30;68.30;;;;;;4950673;28;20219;-69
2023/05/30 09:50:24;;;;;;;5.07;2.03;;;19.30;68.30;;;;;;4947333;28;20555;-70
2023/05/30 09:52:56;;;;;;;3.80;2.27;;;19.40;67.50;;;;;;4951231;28;20609;-70
2023/05/30 09:55:24;;;;;;;3.63;2.27;;;19.50;70.00;;;;;;4948598;28;20685;-70
2023/05/30 09:57:51;;;;;;;4.77;2.13;;;19.60;68.30;;;;;;4950571;28;20209;-70
2023/05/30 10:00:29;;;;;;;6.77;2.50;;;19.70;67.70;;;;;;4951153;28;20207;-70
2023/05/30 10:02:56;;;;;;;5.50;2.10;;;19.80;67.20;;;;;;4950457;28;21029;-70
2023/05/30 10:05:24;;;;;;;6.27;2.13;;;19.70;63.90;;;;;;4954528;28;20207;-71
2023/05/30 10:07:52;;;;;;;5.50;2.20;;;19.60;64.10;;;;;;4958478;28;20228;-73
2023/05/30 10:10:18;;;;;;;6.50;2.57;;;19.80;64.70;;;;;;4940993;28;20202;-73
2023/05/30 10:12:47;;;;;;;4.70;2.17;;;19.90;65.10;;;;;;4954790;28;20695;-73
2023/05/30 10:15:13;;;;;;;6.03;2.20;;;20.00;64.50;;;;;;4958241;28;20248;-73
2023/05/30 10:17:46;;;;;;;4.27;2.30;;;20.10;64.70;;;;;;4951431;28;20671;-74
2023/05/30 10:20:13;;;;;;;5.27;2.53;;;20.00;63.70;;;;;;4947414;28;21137;-74
2023/05/30 10:22:42;;;;;;;4.63;1.77;;;20.00;66.40;;;;;;4949033;28;20852;-75
2023/05/30 10:25:08;;;;;;;4.20;2.40;;;19.90;64.20;;;;;;4944763;28;20212;-74
2023/05/30 10:27:53;;;;;;;4.97;2.43;;;19.90;65.30;;;;;;4949033;28;20228;-75
2023/05/30 10:30:23;;;;;;;3.03;1.73;;;20.10;64.60;;;;;;4947872;28;20237;-73
2023/05/30 10:32:56;;;;;;;4.33;1.90;;;20.00;64.00;;;;;;4949689;28;21145;-73
2023/05/30 10:35:22;;;;;;;4.93;2.40;;;20.30;64.00;;;;;;4949637;28;20224;-74
2023/05/30 10:37:49;;;;;;;8.03;2.40;;;20.40;62.00;;;;;;4947570;28;20209;-75
2023/05/30 10:40:43;;;;;;;4.60;1.93;;;20.40;61.40;;;;;;4952931;28;20216;-74
2023/05/30 10:43:36;;;;;;;2.20;1.90;;;20.60;62.30;;;;;;4951684;28;20204;-75
2023/05/30 10:46:12;;;;;;;3.47;2.20;;;20.80;61.00;;;;;;4948899;28;20219;-75
2023/05/30 10:48:44;;;;;;;5.90;3.00;;;20.70;61.80;;;;;;4946649;28;20224;-75
2023/05/30 10:51:11;;;;;;;2.10;1.87;;;20.70;61.70;;;;;;4948498;28;20292;-76
2023/05/30 10:53:42;;;;;;;2.83;1.83;;;20.60;60.80;;;;;;4945247;28;20656;-74
2023/05/30 10:56:29;;;;;;;5.13;2.33;;;20.90;62.10;;;;;;4947588;28;20196;-75
2023/05/30 10:58:56;;;;;;;6.33;2.17;;;20.80;61.20;;;;;;4947862;28;20298;-75
2023/05/30 11:01:24;;;;;;;2.07;1.73;;;20.90;60.60;;;;;;4947439;28;20205;-75
2023/05/30 11:03:58;;;;;;;2.50;1.70;;;21.10;61.50;;;;;;4950325;28;20263;-75
2023/05/30 11:06:26;;;;;;;3.50;2.03;;;21.30;58.00;;;;;;4932298;28;20205;-75
2023/05/30 11:09:08;;;;;;;3.63;1.43;;;21.60;58.10;;;;;;4956346;28;20212;-75
2023/05/30 11:11:38;;;;;;;8.93;2.63;;;21.90;57.80;;;;;;4945874;28;20198;-76
2023/05/30 11:14:05;;;;;;;6.77;1.90;;;22.00;57.50;;;;;;4948502;28;20518;-74
2023/05/30 11:16:31;;;;;;;2.90;1.53;;;21.90;58.10;;;;;;4945962;28;20256;-75
2023/05/30 11:19:10;;;;;;;5.57;2.00;;;21.90;59.00;;;;;;4947401;28;20202;-72
2023/05/30 11:21:56;;;;;;;6.03;2.40;;;22.10;56.80;;;;;;4927904;28;20661;-73
2023/05/30 11:24:22;;;;;;;4.97;1.97;;;22.20;57.90;;;;;;4939576;28;20650;-73
2023/05/30 11:27:05;;;;;;;5.80;2.03;;;22.40;57.00;;;;;;4951619;28;20537;-72
2023/05/30 11:29:53;;;;;;;5.67;2.13;;;22.50;55.40;;;;;;4956921;28;20665;-74
2023/05/30 11:32:22;;;;;;;6.30;2.57;;;22.40;55.10;;;;;;4953858;28;20211;-72
2023/05/30 11:34:58;;;;;;;5.70;2.20;;;22.80;55.30;;;;;;4957305;28;20232;-74
2023/05/30 11:37:24;;;;;;;6.33;2.27;;;23.00;55.80;;;;;;4951158;28;20919;-73
2023/05/30 11:39:56;;;;;;;5.43;1.67;;;23.10;54.80;;;;;;4945057;28;20210;-73
2023/05/30 11:42:22;;;;;;;2.03;1.80;;;23.30;56.30;;;;;;4929893;28;20769;-71
2023/05/30 11:44:48;;;;;;;6.72;1.85;;;23.40;60.30;;;;;;4947242;28;20252;-70
2023/05/30 11:47:15;;;;;;;3.10;1.80;;;23.40;55.90;;;;;;4946931;28;20221;-70
2023/05/30 11:49:41;;;;;;;2.25;1.63;;;23.40;57.50;;;;;;4949069;28;20653;-70
2023/05/30 11:52:08;;;;;;;4.82;1.95;;;23.60;52.80;;;;;;4952085;28;20305;-69
2023/05/30 11:54:34;;;;;;;4.43;1.55;;;23.30;54.70;;;;;;4946873;28;20194;-70
2023/05/30 11:56:59;;;;;;;3.13;1.60;;;23.20;54.00;;;;;;4945424;28;20262;-70
2023/05/30 11:59:26;;;;;;;1.92;1.38;;;23.40;53.50;;;;;;4946346;28;20213;-70
2023/05/30 12:01:57;;;;;;;5.90;1.70;;;23.50;54.10;;;;;;4949665;28;20202;-72
2023/05/30 12:04:30;;;;;;;1.43;1.33;;;23.30;54.40;;;;;;4948867;28;20277;-70
2023/05/30 12:07:04;;;;;;;2.70;2.10;;;23.30;55.50;;;;;;4938160;28;20228;-70
2023/05/30 12:09:38;;;;;;;8.77;2.10;;;23.30;53.10;;;;;;4955873;28;20688;-73
2023/05/30 12:12:04;;;;;;;2.63;1.83;;;23.80;53.00;;;;;;4941259;28;20205;-71
2023/05/30 12:14:36;;;;;;;2.20;1.60;;;24.20;51.90;;;;;;4947729;28;20270;-70
2023/05/30 12:17:02;;;;;;;2.20;1.50;;;24.20;54.00;;;;;;4950114;28;20217;-71
2023/05/30 12:19:31;;;;;;;2.45;1.75;;;24.40;52.10;;;;;;4926791;28;20205;-70
2023/05/30 12:21:57;;;;;;;3.65;1.80;;;24.30;52.50;;;;;;4945921;28;20798;-70
2023/05/30 12:24:25;;;;;;;3.38;2.22;;;24.50;51.30;;;;;;4953822;28;20314;-71
2023/05/30 12:26:56;;;;;;;5.65;2.20;;;24.30;51.40;;;;;;4951257;28;21167;-70
2023/05/30 12:29:27;;;;;;;3.00;2.10;;;24.30;51.00;;;;;;4946855;28;20206;-71
2023/05/30 12:31:53;;;;;;;2.47;2.05;;;24.50;53.80;;;;;;4948211;28;20206;-70
2023/05/30 12:34:20;;;;;;;6.10;1.55;;;24.40;52.70;;;;;;4947433;28;20219;-70
2023/05/30 12:36:47;;;;;;;4.82;1.77;;;24.30;53.20;;;;;;4946838;28;20285;-71
2023/05/30 12:39:12;;;;;;;3.00;1.73;;;24.50;51.10;;;;;;4945342;28;20203;-70
2023/05/30 12:41:40;;;;;;;1.52;1.20;;;25.00;51.90;;;;;;4944119;28;20199;-70
2023/05/30 12:44:06;;;;;;;2.65;1.50;;;25.00;48.90;;;;;;4939071;28;20219;-70
2023/05/30 12:46:36;;;;;;;3.20;1.88;;;24.80;49.90;;;;;;4944113;28;20211;-70
2023/05/30 12:49:02;;;;;;;2.20;1.95;;;24.80;50.90;;;;;;4950615;28;20594;-70